Mc Minnville Municipal Airport
KMMV : now visible

Airfield :











YOU CAN JOIN US ON...

 
LOGIN :

Register | Disclaimer

   EN    FR    IT 

 









Legend :    VFR   Marginal VFR   IFR   Intensive IFR   Very Intensive IFR
Visi :
Ceiling :
>= 8 km
>= 3000ft
5 to 8 km
1000 to 3000 ft
1500m to 5 km
500 to 1000 ft
800 to 1500m
200 to 500 ft
< 800m
< 200 ft
Symbols :   Thunderstorms  Fog  Heavy snow  Heavy precipitations  Wind > 20 kt






- Airport Elevation : 163 ft


KMMV - Mc Minnville Municipal

CURRENT METAR :
  • 150805Z AUTO 00000KT 1/4SM FZFG VV002 M01/M01 A3005 RMK AO2 I1001 T10061011

EXPIRED METARs :
  • 150753Z AUTO 00000KT 3/4SM BR VV002 M01/M01 A3005 RMK AO2 SLP176 T10061006 400781006
  • 150719Z AUTO 26003KT 1/2SM FG VV001 00/M01 A3004 RMK AO2 T00001006
  • 150702Z AUTO 27003KT 1/4SM FG VV001 01/01 A3004 RMK AO2 T00060006
  • 150644Z AUTO 31004KT 3SM BR SCT002 01/01 A3004 RMK AO2 T00110011
  • 150619Z AUTO 31004KT 1/2SM FG VV001 01/01 A3003 RMK AO2 T00110006
  • 150553Z AUTO 00000KT 1/4SM FG VV002 02/02 A3002 RMK AO2 SLP167 T00220017 10056 20011 51012
  • 150523Z AUTO 00000KT 1/4SM FG VV002 02/02 A3002 RMK AO2 T00220017
  • 150519Z AUTO 00000KT 3/4SM BR VV003 02/02 A3002 RMK AO2 T00220022

TAF N/A



MET'MAP, your aeronautical weather chart ! - Copyright ORBIFLY December 2007 - Disclaimer

ORBIFLY MET'MAP TEAM :

Programming & Development : Alexandra Zaïnal
Concept & original design : Baudouin d'Aumeries
Assistance for programming : Marc-Olivier Méhu
Technical & hardware support : Manuel Goepfert

Contact : metmap@orbifly.com




SOURCES & CREDITS :

   NOAA       Earth
Advisory